Time;durP1;ratioP1;P1;durP2;ratioP2;P2;SDS_P1;SDS_P2;PMS_P1;PMS_P2;Temp;Humidity;BMP_temperature;BMP_pressure;BME280_temperature;BME280_humidity;BME280_pressure;Samples;Min_cycle;Max_cycle;Signal;HPM_P1;HPM_P2
2021/06/28 00:00:29;;;;;;;;;;;21.70;99.90;;;;;;2096002;28;700;-63
2021/06/28 00:01:48;;;;;;;;;;;21.70;99.90;;;;;;2098080;28;1842;-63
2021/06/28 00:03:08;;;;;;;;;;;21.70;99.90;;;;;;2094554;28;1549;-63
2021/06/28 00:04:27;;;;;;;;;;;21.70;99.90;;;;;;2089942;28;934;-63
2021/06/28 00:05:47;;;;;;;;;;;21.70;99.90;;;;;;2090480;28;737;-62
2021/06/28 00:07:07;;;;;;;;;;;21.70;99.90;;;;;;2098639;28;723;-63
2021/06/28 00:08:26;;;;;;;;;;;21.70;99.90;;;;;;2090246;28;720;-63
2021/06/28 00:09:45;;;;;;;;;;;21.70;99.90;;;;;;2090668;28;720;-63
2021/06/28 00:11:05;;;;;;;;;;;21.60;99.90;;;;;;2098737;28;728;-63
2021/06/28 00:12:24;;;;;;;;;;;21.60;99.90;;;;;;2090275;28;734;-63
2021/06/28 00:13:44;;;;;;;;;;;21.60;99.90;;;;;;2089587;28;784;-63
2021/06/28 00:15:03;;;;;;;;;;;21.60;99.90;;;;;;2090216;28;728;-63
2021/06/28 00:16:26;;;;;;;;;;;21.60;99.90;;;;;;2087462;28;1819;-63
2021/06/28 00:17:45;;;;;;;;;;;21.60;99.90;;;;;;2087218;28;803;-63
2021/06/28 00:19:04;;;;;;;;;;;21.60;99.90;;;;;;2087121;28;796;-63
2021/06/28 00:20:24;;;;;;;;;;;21.60;99.90;;;;;;2092119;28;785;-63
2021/06/28 00:21:43;;;;;;;;;;;21.60;99.90;;;;;;2099499;28;1303;-63
2021/06/28 00:23:02;;;;;;;;;;;21.60;99.90;;;;;;2098751;28;1975;-63
2021/06/28 00:24:21;;;;;;;;;;;21.60;99.90;;;;;;2099832;28;1004;-63
2021/06/28 00:25:41;;;;;;;;;;;21.60;99.90;;;;;;2099129;28;731;-63
2021/06/28 00:27:00;;;;;;;;;;;21.60;99.90;;;;;;2098433;28;1683;-63
2021/06/28 00:28:21;;;;;;;;;;;21.60;99.90;;;;;;2095239;28;832;-63
2021/06/28 00:29:40;;;;;;;;;;;21.60;99.90;;;;;;2099067;28;816;-63
2021/06/28 00:31:00;;;;;;;;;;;21.60;99.90;;;;;;2098943;28;1993;-63
2021/06/28 00:32:19;;;;;;;;;;;21.60;99.90;;;;;;2099182;28;695;-63
2021/06/28 00:33:38;;;;;;;;;;;21.60;99.90;;;;;;2099218;28;1381;-63
2021/06/28 00:34:57;;;;;;;;;;;21.60;99.90;;;;;;2098771;28;1040;-63
2021/06/28 00:36:16;;;;;;;;;;;21.60;99.90;;;;;;2089630;28;728;-62
2021/06/28 00:37:36;;;;;;;;;;;21.60;99.90;;;;;;2095886;28;762;-64
2021/06/28 00:38:55;;;;;;;;;;;21.60;99.90;;;;;;2099431;28;739;-64
2021/06/28 00:40:14;;;;;;;;;;;21.60;99.90;;;;;;2098789;28;744;-64
2021/06/28 00:41:33;;;;;;;;;;;21.60;99.90;;;;;;2098424;28;1834;-63
2021/06/28 00:42:53;;;;;;;;;;;21.60;99.90;;;;;;2098546;28;1906;-64
2021/06/28 00:44:12;;;;;;;;;;;21.60;99.90;;;;;;2097854;28;805;-63
2021/06/28 00:45:32;;;;;;;;;;;21.60;99.90;;;;;;2090243;28;724;-63
2021/06/28 00:46:51;;;;;;;;;;;21.60;99.90;;;;;;2095478;28;1051;-63
2021/06/28 00:48:14;;;;;;;;;;;21.60;99.90;;;;;;2099010;28;722;-63
2021/06/28 00:49:34;;;;;;;;;;;21.60;99.90;;;;;;2098298;28;831;-63
2021/06/28 00:50:53;;;;;;;;;;;21.60;99.90;;;;;;2097025;28;1026;-63
2021/06/28 00:52:13;;;;;;;;;;;21.60;99.90;;;;;;2100860;28;1032;-63
2021/06/28 00:53:31;;;;;;;;;;;21.60;99.90;;;;;;2099033;28;1516;-63
2021/06/28 00:54:51;;;;;;;;;;;21.60;99.90;;;;;;2090306;28;1482;-63
2021/06/28 00:56:10;;;;;;;;;;;21.60;99.90;;;;;;2090314;28;692;-63
2021/06/28 00:57:29;;;;;;;;;;;21.50;99.90;;;;;;2090504;28;771;-63
2021/06/28 00:58:48;;;;;;;;;;;21.60;99.90;;;;;;2099723;28;1288;-63
2021/06/28 01:00:08;;;;;;;;;;;21.50;99.90;;;;;;2090654;28;710;-63
2021/06/28 01:01:27;;;;;;;;;;;21.50;99.90;;;;;;2098485;28;723;-63
2021/06/28 01:02:47;;;;;;;;;;;21.50;99.90;;;;;;2093699;28;1898;-63
2021/06/28 01:04:06;;;;;;;;;;;21.50;99.90;;;;;;2097569;28;757;-63
2021/06/28 01:05:27;;;;;;;;;;;21.50;99.90;;;;;;2093770;28;752;-63
2021/06/28 01:06:46;;;;;;;;;;;21.50;99.90;;;;;;2098336;28;722;-63
2021/06/28 01:08:06;;;;;;;;;;;21.50;99.90;;;;;;2099617;28;739;-63
2021/06/28 01:09:25;;;;;;;;;;;21.60;99.90;;;;;;2083313;28;747;-63
2021/06/28 01:10:44;;;;;;;;;;;21.50;99.90;;;;;;2088744;28;881;-63
2021/06/28 01:12:04;;;;;;;;;;;21.60;99.90;;;;;;2097990;28;1649;-63
2021/06/28 01:13:25;;;;;;;;;;;21.50;99.90;;;;;;2098139;28;1572;-63
2021/06/28 01:14:44;;;;;;;;;;;21.50;99.90;;;;;;2089541;28;718;-63
2021/06/28 01:16:04;;;;;;;;;;;21.50;99.90;;;;;;2098000;28;868;-63
2021/06/28 01:17:23;;;;;;;;;;;21.50;99.90;;;;;;2086905;28;780;-63
2021/06/28 01:18:42;;;;;;;;;;;21.50;99.90;;;;;;2087324;28;841;-63
2021/06/28 01:20:21;;;;;;;;;;;21.50;99.90;;;;;;2095635;28;758;-63
2021/06/28 01:21:42;;;;;;;;;;;21.50;99.90;;;;;;2091477;28;1214;-63
2021/06/28 01:23:07;;;;;;;;;;;21.50;99.90;;;;;;2102902;28;1910;-63
2021/06/28 01:24:26;;;;;;;;;;;21.50;99.90;;;;;;2101738;28;1163;-63
2021/06/28 01:25:46;;;;;;;;;;;21.50;99.90;;;;;;2088576;28;1592;-63
2021/06/28 01:27:06;;;;;;;;;;;21.50;99.90;;;;;;2091330;28;1695;-63
2021/06/28 01:28:25;;;;;;;;;;;21.50;99.90;;;;;;2094767;28;781;-63
2021/06/28 01:29:44;;;;;;;;;;;21.50;99.90;;;;;;2098427;28;738;-63
2021/06/28 01:31:05;;;;;;;;;;;21.50;99.90;;;;;;2089512;28;725;-63
2021/06/28 01:32:24;;;;;;;;;;;21.50;99.90;;;;;;2090135;28;1029;-63
2021/06/28 01:33:43;;;;;;;;;;;21.50;99.90;;;;;;2103158;28;805;-63
2021/06/28 01:35:03;;;;;;;;;;;21.50;99.90;;;;;;2101387;28;1023;-63
2021/06/28 01:36:21;;;;;;;;;;;21.50;99.90;;;;;;2098241;28;739;-63
2021/06/28 01:37:41;;;;;;;;;;;21.50;99.90;;;;;;2098464;28;704;-63
2021/06/28 01:39:00;;;;;;;;;;;21.50;99.90;;;;;;2098485;28;722;-63
2021/06/28 01:40:19;;;;;;;;;;;21.50;99.90;;;;;;2098589;28;1561;-63
2021/06/28 01:41:39;;;;;;;;;;;21.40;99.90;;;;;;2098076;28;763;-63
2021/06/28 01:42:58;;;;;;;;;;;21.40;99.90;;;;;;2089805;28;1902;-63
2021/06/28 01:44:17;;;;;;;;;;;21.40;99.90;;;;;;2089670;28;715;-63
2021/06/28 01:45:36;;;;;;;;;;;21.40;99.90;;;;;;2089634;28;773;-63
2021/06/28 01:46:55;;;;;;;;;;;21.40;99.90;;;;;;2086478;28;775;-63
2021/06/28 01:48:15;;;;;;;;;;;21.40;99.90;;;;;;2090123;28;704;-63
2021/06/28 01:49:34;;;;;;;;;;;21.40;99.90;;;;;;2090268;28;1664;-63
2021/06/28 01:50:53;;;;;;;;;;;21.40;99.90;;;;;;2096706;28;888;-63
2021/06/28 01:52:12;;;;;;;;;;;21.40;99.90;;;;;;2096068;28;1437;-63
2021/06/28 01:53:32;;;;;;;;;;;21.40;99.90;;;;;;2096993;28;1530;-63
2021/06/28 01:54:51;;;;;;;;;;;21.40;99.90;;;;;;2086210;28;720;-62
2021/06/28 01:56:11;;;;;;;;;;;21.40;99.90;;;;;;2090237;28;700;-63
2021/06/28 01:57:30;;;;;;;;;;;21.40;99.90;;;;;;2090007;28;713;-63
2021/06/28 01:58:49;;;;;;;;;;;21.40;99.90;;;;;;2089603;28;817;-62
2021/06/28 02:00:09;;;;;;;;;;;21.40;99.90;;;;;;2089836;28;775;-63
2021/06/28 02:01:29;;;;;;;;;;;21.40;99.90;;;;;;2089368;28;729;-63
2021/06/28 02:02:57;;;;;;;;;;;21.40;99.90;;;;;;2088944;28;2034;-63
2021/06/28 02:04:18;;;;;;;;;;;21.40;99.90;;;;;;2095064;28;712;-63
2021/06/28 02:05:38;;;;;;;;;;;21.40;99.90;;;;;;2093200;28;1818;-63
2021/06/28 02:06:59;;;;;;;;;;;21.40;99.90;;;;;;2097433;28;681;-63
2021/06/28 02:08:19;;;;;;;;;;;21.40;99.90;;;;;;2089285;28;720;-63
2021/06/28 02:09:38;;;;;;;;;;;21.40;99.90;;;;;;2091386;28;744;-63
2021/06/28 02:10:58;;;;;;;;;;;21.40;99.90;;;;;;2086312;28;708;-63
2021/06/28 02:12:17;;;;;;;;;;;21.40;99.90;;;;;;2094337;28;1711;-63
2021/06/28 02:13:37;;;;;;;;;;;21.40;99.90;;;;;;2097013;28;1364;-63
2021/06/28 02:14:56;;;;;;;;;;;21.40;99.90;;;;;;2097362;28;753;-63
2021/06/28 02:16:15;;;;;;;;;;;21.40;99.90;;;;;;2096966;28;1340;-63
2021/06/28 02:17:35;;;;;;;;;;;21.40;99.90;;;;;;2097871;28;794;-63
2021/06/28 02:18:54;;;;;;;;;;;21.40;99.90;;;;;;2097519;28;727;-63
2021/06/28 02:20:13;;;;;;;;;;;21.30;99.90;;;;;;2097922;28;770;-63
2021/06/28 02:21:32;;;;;;;;;;;21.30;99.90;;;;;;2097444;28;924;-63
2021/06/28 02:22:51;;;;;;;;;;;21.30;99.90;;;;;;2099100;28;1926;-63
2021/06/28 02:24:10;;;;;;;;;;;21.30;99.90;;;;;;2091958;28;1177;-63
2021/06/28 02:25:29;;;;;;;;;;;21.30;99.90;;;;;;2086415;28;751;-63
2021/06/28 02:26:49;;;;;;;;;;;21.30;99.90;;;;;;2089861;28;721;-63
2021/06/28 02:28:08;;;;;;;;;;;21.30;99.90;;;;;;2089351;28;721;-63
2021/06/28 02:29:27;;;;;;;;;;;21.30;99.90;;;;;;2086042;28;717;-63
2021/06/28 02:30:46;;;;;;;;;;;21.30;99.90;;;;;;2094218;28;1183;-63
2021/06/28 02:32:06;;;;;;;;;;;21.30;99.90;;;;;;2094011;28;1673;-63
2021/06/28 02:33:25;;;;;;;;;;;21.30;99.90;;;;;;2097430;28;1353;-63
2021/06/28 02:34:44;;;;;;;;;;;21.30;99.90;;;;;;2097135;28;799;-63
2021/06/28 02:36:04;;;;;;;;;;;21.30;99.90;;;;;;2089186;28;722;-63
2021/06/28 02:37:23;;;;;;;;;;;21.30;99.90;;;;;;2086012;28;713;-63
2021/06/28 02:38:43;;;;;;;;;;;21.30;99.90;;;;;;2094590;28;701;-63
2021/06/28 02:40:03;;;;;;;;;;;21.30;99.90;;;;;;2097335;28;1492;-62
2021/06/28 02:41:22;;;;;;;;;;;21.30;99.90;;;;;;2097370;28;732;-63
2021/06/28 02:42:42;;;;;;;;;;;21.30;99.90;;;;;;2087862;28;1961;-63
2021/06/28 02:44:01;;;;;;;;;;;21.30;99.90;;;;;;2085575;28;777;-63
2021/06/28 02:45:20;;;;;;;;;;;21.30;99.90;;;;;;2089053;28;784;-63
2021/06/28 02:46:39;;;;;;;;;;;21.30;99.90;;;;;;2089454;28;693;-62
2021/06/28 02:47:59;;;;;;;;;;;21.30;99.90;;;;;;2089594;28;708;-63
2021/06/28 02:49:18;;;;;;;;;;;21.30;99.90;;;;;;2097362;28;707;-62
2021/06/28 02:50:37;;;;;;;;;;;21.30;99.90;;;;;;2092756;28;712;-63
2021/06/28 02:51:57;;;;;;;;;;;21.30;99.90;;;;;;2102689;28;1438;-63
2021/06/28 02:53:17;;;;;;;;;;;21.30;99.90;;;;;;2100067;28;1862;-63
2021/06/28 02:54:36;;;;;;;;;;;21.30;99.90;;;;;;2097133;28;1195;-63
2021/06/28 02:55:55;;;;;;;;;;;21.30;99.90;;;;;;2097405;28;1463;-63
2021/06/28 02:57:15;;;;;;;;;;;21.30;99.90;;;;;;2097270;28;709;-63
2021/06/28 02:58:34;;;;;;;;;;;21.30;99.90;;;;;;2096986;28;728;-63
2021/06/28 02:59:53;;;;;;;;;;;21.30;99.90;;;;;;2097678;28;738;-63
2021/06/28 03:01:13;;;;;;;;;;;21.30;99.90;;;;;;2096658;28;1014;-62
2021/06/28 03:02:32;;;;;;;;;;;21.30;99.90;;;;;;2089059;28;1896;-62
2021/06/28 03:03:51;;;;;;;;;;;21.30;99.90;;;;;;2097247;28;1406;-62
2021/06/28 03:05:11;;;;;;;;;;;21.30;99.90;;;;;;2089456;28;1197;-62
2021/06/28 03:06:30;;;;;;;;;;;21.30;99.90;;;;;;2096692;28;1348;-63
2021/06/28 03:07:49;;;;;;;;;;;21.20;99.90;;;;;;2096579;28;1304;-62
2021/06/28 03:09:09;;;;;;;;;;;21.30;99.90;;;;;;2090546;28;1444;-62
2021/06/28 03:10:28;;;;;;;;;;;21.30;99.90;;;;;;2100416;28;1442;-61
2021/06/28 03:11:47;;;;;;;;;;;21.20;99.90;;;;;;2098627;28;1389;-62
2021/06/28 03:13:08;;;;;;;;;;;21.20;99.90;;;;;;2100303;28;1438;-62
2021/06/28 03:14:27;;;;;;;;;;;21.20;99.90;;;;;;2095751;28;1196;-62
2021/06/28 03:15:46;;;;;;;;;;;21.30;99.90;;;;;;2087249;28;1303;-62
2021/06/28 03:17:05;;;;;;;;;;;21.20;99.90;;;;;;2096760;28;1306;-63
2021/06/28 03:18:24;;;;;;;;;;;21.20;99.90;;;;;;2099083;28;1625;-62
2021/06/28 03:19:44;;;;;;;;;;;21.30;99.90;;;;;;2101465;28;1168;-63
2021/06/28 03:21:04;;;;;;;;;;;21.30;99.90;;;;;;2098372;28;1151;-62
2021/06/28 03:22:23;;;;;;;;;;;21.20;99.90;;;;;;2098900;28;1967;-63
2021/06/28 03:23:43;;;;;;;;;;;21.20;99.90;;;;;;2097079;28;1243;-62
2021/06/28 03:25:02;;;;;;;;;;;21.20;99.90;;;;;;2100417;28;1192;-63
2021/06/28 03:26:21;;;;;;;;;;;21.20;99.90;;;;;;2097615;28;1422;-63
2021/06/28 03:27:41;;;;;;;;;;;21.20;99.90;;;;;;2085340;28;1277;-62
2021/06/28 03:29:00;;;;;;;;;;;21.20;99.90;;;;;;2090812;28;1557;-62
2021/06/28 03:30:19;;;;;;;;;;;21.20;99.90;;;;;;2092674;28;1274;-63
2021/06/28 03:31:38;;;;;;;;;;;21.20;99.90;;;;;;2090076;28;1115;-63
2021/06/28 03:32:58;;;;;;;;;;;21.20;99.90;;;;;;2097146;28;1534;-62
2021/06/28 03:34:17;;;;;;;;;;;21.20;99.90;;;;;;2096424;28;1279;-62
2021/06/28 03:35:37;;;;;;;;;;;21.20;99.90;;;;;;2095612;28;1348;-62
2021/06/28 03:36:56;;;;;;;;;;;21.20;99.90;;;;;;2094057;28;1332;-62
2021/06/28 03:38:15;;;;;;;;;;;21.20;99.90;;;;;;2096835;28;1687;-62
2021/06/28 03:39:34;;;;;;;;;;;21.20;99.90;;;;;;2096317;28;1395;-63
2021/06/28 03:40:54;;;;;;;;;;;21.20;99.90;;;;;;2091724;28;1328;-62
2021/06/28 03:42:13;;;;;;;;;;;21.20;99.90;;;;;;2095778;28;1335;-62
2021/06/28 03:43:32;;;;;;;;;;;21.20;99.90;;;;;;2095534;28;1750;-62
2021/06/28 03:44:51;;;;;;;;;;;21.20;99.90;;;;;;2094216;28;1398;-61
2021/06/28 03:46:10;;;;;;;;;;;21.20;99.90;;;;;;2092413;28;1408;-63
2021/06/28 03:47:30;;;;;;;;;;;21.20;99.90;;;;;;2088556;28;1245;-62
2021/06/28 03:48:49;;;;;;;;;;;21.20;99.90;;;;;;2080626;28;1382;-63
2021/06/28 03:50:09;;;;;;;;;;;21.20;99.90;;;;;;2089791;28;1280;-63
2021/06/28 03:51:28;;;;;;;;;;;21.20;99.90;;;;;;2094475;28;1364;-62
2021/06/28 03:52:47;;;;;;;;;;;21.00;99.90;;;;;;2094149;28;1684;-62
2021/06/28 03:54:07;;;;;;;;;;;20.90;99.90;;;;;;2092493;28;1377;-62
2021/06/28 03:55:26;;;;;;;;;;;20.90;99.90;;;;;;2096352;28;1400;-62
2021/06/28 03:56:45;;;;;;;;;;;20.90;99.90;;;;;;2086913;28;1272;-63
2021/06/28 03:58:04;;;;;;;;;;;20.90;99.90;;;;;;2089784;28;1248;-62
2021/06/28 03:59:24;;;;;;;;;;;21.00;99.90;;;;;;2096170;28;1401;-63
2021/06/28 04:00:45;;;;;;;;;;;21.00;99.90;;;;;;2092864;28;1130;-63
2021/06/28 04:02:04;;;;;;;;;;;21.00;99.90;;;;;;2094265;28;1610;-63
2021/06/28 04:03:26;;;;;;;;;;;21.10;99.90;;;;;;2095812;28;1601;-62
2021/06/28 04:04:49;;;;;;;;;;;21.10;99.90;;;;;;2093456;28;1213;-62
2021/06/28 04:06:08;;;;;;;;;;;21.10;99.90;;;;;;2093698;28;1432;-63
2021/06/28 04:07:29;;;;;;;;;;;21.10;99.90;;;;;;2086582;28;1359;-62
2021/06/28 04:08:48;;;;;;;;;;;21.10;99.90;;;;;;2089795;28;1198;-62
2021/06/28 04:10:07;;;;;;;;;;;21.10;99.90;;;;;;2096431;28;1234;-62
2021/06/28 04:11:29;;;;;;;;;;;21.10;99.90;;;;;;2084541;28;1431;-63
2021/06/28 04:12:48;;;;;;;;;;;21.10;99.90;;;;;;2092263;28;1389;-62
2021/06/28 04:14:07;;;;;;;;;;;21.10;99.90;;;;;;2095765;28;1223;-62
2021/06/28 04:15:27;;;;;;;;;;;21.10;99.90;;;;;;2096916;28;1331;-63
2021/06/28 04:16:46;;;;;;;;;;;21.10;99.90;;;;;;2090673;28;1307;-62
2021/06/28 04:18:05;;;;;;;;;;;21.10;99.90;;;;;;2091677;28;1223;-62
2021/06/28 04:19:24;;;;;;;;;;;21.10;99.90;;;;;;2093582;28;1277;-63
2021/06/28 04:20:44;;;;;;;;;;;21.10;99.90;;;;;;2097771;28;1262;-62
2021/06/28 04:22:03;;;;;;;;;;;21.10;99.90;;;;;;2095979;28;1726;-63
2021/06/28 04:23:22;;;;;;;;;;;21.10;99.90;;;;;;2093387;28;1436;-63
2021/06/28 04:24:41;;;;;;;;;;;21.10;99.90;;;;;;2096220;28;1272;-63
2021/06/28 04:26:01;;;;;;;;;;;21.10;99.90;;;;;;2093637;28;1431;-62
2021/06/28 04:27:20;;;;;;;;;;;21.10;99.90;;;;;;2094933;28;1392;-62
2021/06/28 04:28:39;;;;;;;;;;;21.10;99.90;;;;;;2093996;28;1247;-62
2021/06/28 04:29:58;;;;;;;;;;;21.10;99.90;;;;;;2085016;28;1279;-62
2021/06/28 04:31:17;;;;;;;;;;;21.10;99.90;;;;;;2091202;28;1169;-62
2021/06/28 04:32:37;;;;;;;;;;;21.10;99.90;;;;;;2095527;28;1415;-62
2021/06/28 04:33:56;;;;;;;;;;;21.10;99.90;;;;;;2096031;28;1346;-62
2021/06/28 04:35:16;;;;;;;;;;;21.10;99.90;;;;;;2094452;28;1085;-62
2021/06/28 04:36:35;;;;;;;;;;;21.10;99.90;;;;;;2086747;28;1232;-62
2021/06/28 04:37:55;;;;;;;;;;;21.10;99.90;;;;;;2094209;28;1291;-62
2021/06/28 04:39:14;;;;;;;;;;;21.10;99.90;;;;;;2098194;28;1291;-62
2021/06/28 04:40:33;;;;;;;;;;;21.10;99.90;;;;;;2097067;28;1540;-62
2021/06/28 04:41:52;;;;;;;;;;;21.10;99.90;;;;;;2090075;28;1145;-63
2021/06/28 04:43:12;;;;;;;;;;;21.10;99.90;;;;;;2093753;28;1914;-62
2021/06/28 04:44:31;;;;;;;;;;;21.10;99.90;;;;;;2096776;28;1193;-62
2021/06/28 04:45:50;;;;;;;;;;;21.10;99.90;;;;;;2096721;28;1790;-62
2021/06/28 04:47:09;;;;;;;;;;;21.10;99.90;;;;;;2096399;28;1356;-62
2021/06/28 04:48:28;;;;;;;;;;;21.10;99.90;;;;;;2097392;28;1060;-62
2021/06/28 04:49:48;;;;;;;;;;;21.10;99.90;;;;;;2093522;28;1354;-62
2021/06/28 04:51:07;;;;;;;;;;;21.10;99.90;;;;;;2095953;28;1380;-62
2021/06/28 04:52:26;;;;;;;;;;;21.10;99.90;;;;;;2089675;28;1188;-62
2021/06/28 04:53:45;;;;;;;;;;;21.10;99.90;;;;;;2092519;28;1367;-62
2021/06/28 04:55:05;;;;;;;;;;;21.10;99.90;;;;;;2087378;28;1043;-63
2021/06/28 04:56:25;;;;;;;;;;;21.10;99.90;;;;;;2093509;28;1032;-62
2021/06/28 04:57:44;;;;;;;;;;;21.10;99.90;;;;;;2096851;28;1066;-61
2021/06/28 04:59:04;;;;;;;;;;;21.10;99.90;;;;;;2096342;28;1597;-63
2021/06/28 05:00:23;;;;;;;;;;;21.10;99.90;;;;;;2097064;28;1225;-63
2021/06/28 05:01:43;;;;;;;;;;;21.10;99.90;;;;;;2097112;28;1148;-61
2021/06/28 05:03:03;;;;;;;;;;;21.00;99.90;;;;;;2094254;28;1902;-61
2021/06/28 05:04:22;;;;;;;;;;;21.00;99.90;;;;;;2096220;28;1263;-61
2021/06/28 05:05:42;;;;;;;;;;;21.00;99.90;;;;;;2097677;28;1603;-62
2021/06/28 05:07:01;;;;;;;;;;;21.00;99.90;;;;;;2092169;28;1249;-61
2021/06/28 05:08:20;;;;;;;;;;;21.00;99.90;;;;;;2090025;28;1146;-60
2021/06/28 05:09:40;;;;;;;;;;;21.00;99.90;;;;;;2092365;28;1172;-60
2021/06/28 05:10:59;;;;;;;;;;;21.00;99.90;;;;;;2095630;28;1281;-61
2021/06/28 05:12:19;;;;;;;;;;;21.10;99.90;;;;;;2097046;28;1151;-62
2021/06/28 05:13:38;;;;;;;;;;;21.10;99.90;;;;;;2094813;28;1448;-61
2021/06/28 05:14:57;;;;;;;;;;;21.10;99.90;;;;;;2094599;28;1305;-62
2021/06/28 05:16:16;;;;;;;;;;;21.10;99.90;;;;;;2093286;28;1391;-62
2021/06/28 05:17:35;;;;;;;;;;;21.10;99.90;;;;;;2098884;28;1229;-61
2021/06/28 05:18:54;;;;;;;;;;;21.10;99.90;;;;;;2094498;28;1382;-61
2021/06/28 05:20:14;;;;;;;;;;;21.10;99.90;;;;;;2094003;28;1285;-62
2021/06/28 05:21:33;;;;;;;;;;;21.10;99.90;;;;;;2095636;28;1200;-60
2021/06/28 05:22:53;;;;;;;;;;;21.10;99.90;;;;;;2090193;28;1969;-61
2021/06/28 05:24:12;;;;;;;;;;;21.20;99.90;;;;;;2086185;28;1155;-60
2021/06/28 05:25:31;;;;;;;;;;;21.20;99.90;;;;;;2093318;28;1222;-61
2021/06/28 05:26:51;;;;;;;;;;;21.20;99.90;;;;;;2093873;28;1367;-60
2021/06/28 05:28:10;;;;;;;;;;;21.20;99.90;;;;;;2094953;28;1427;-61
2021/06/28 05:29:30;;;;;;;;;;;21.20;99.90;;;;;;2094347;28;1144;-62
2021/06/28 05:30:49;;;;;;;;;;;21.20;99.90;;;;;;2078403;28;1172;-62
2021/06/28 05:32:08;;;;;;;;;;;21.20;99.90;;;;;;2083099;28;1291;-62
2021/06/28 05:33:27;;;;;;;;;;;21.20;99.90;;;;;;2090526;28;1548;-62
2021/06/28 05:34:46;;;;;;;;;;;21.20;99.90;;;;;;2098127;28;1041;-62
2021/06/28 05:36:05;;;;;;;;;;;21.30;99.90;;;;;;2095081;28;1156;-62
2021/06/28 05:37:25;;;;;;;;;;;21.20;99.90;;;;;;2098105;28;1371;-62
2021/06/28 05:38:44;;;;;;;;;;;21.30;99.90;;;;;;2086087;28;1379;-62
2021/06/28 05:40:04;;;;;;;;;;;21.30;99.90;;;;;;2093831;28;1345;-62
2021/06/28 05:41:23;;;;;;;;;;;21.30;99.90;;;;;;2097269;28;1301;-62
2021/06/28 05:42:44;;;;;;;;;;;21.30;99.90;;;;;;2096455;28;1905;-62
2021/06/28 05:44:03;;;;;;;;;;;21.30;99.90;;;;;;2094864;28;1161;-62
2021/06/28 05:45:22;;;;;;;;;;;21.30;99.90;;;;;;2096164;28;1410;-62
2021/06/28 05:46:41;;;;;;;;;;;21.30;99.90;;;;;;2095443;28;1342;-62
2021/06/28 05:48:01;;;;;;;;;;;21.30;99.90;;;;;;2096418;28;1308;-62
2021/06/28 05:49:20;;;;;;;;;;;21.30;99.90;;;;;;2095837;28;1233;-62
2021/06/28 05:50:39;;;;;;;;;;;21.30;99.90;;;;;;2091002;28;1275;-62
2021/06/28 05:51:59;;;;;;;;;;;21.30;99.90;;;;;;2094199;28;1109;-62
2021/06/28 05:53:18;;;;;;;;;;;21.30;99.90;;;;;;2093786;28;1392;-62
2021/06/28 05:54:38;;;;;;;;;;;21.30;99.90;;;;;;2096912;28;1132;-61
2021/06/28 05:55:58;;;;;;;;;;;21.40;99.90;;;;;;2095493;28;1271;-62
2021/06/28 05:57:19;;;;;;;;;;;21.40;99.90;;;;;;2096346;28;1228;-62
2021/06/28 05:58:39;;;;;;;;;;;21.40;99.90;;;;;;2098652;28;1178;-62
2021/06/28 05:59:58;;;;;;;;;;;21.40;99.90;;;;;;2097256;28;1180;-62
2021/06/28 06:01:17;;;;;;;;;;;21.40;99.90;;;;;;2092085;28;1305;-62
2021/06/28 06:02:37;;;;;;;;;;;21.40;99.90;;;;;;2097099;28;1927;-62
2021/06/28 06:03:56;;;;;;;;;;;21.40;99.90;;;;;;2092837;28;1372;-62
2021/06/28 06:05:15;;;;;;;;;;;21.40;99.90;;;;;;2083827;28;1401;-61
2021/06/28 06:06:34;;;;;;;;;;;21.40;99.90;;;;;;2088693;28;1227;-62
2021/06/28 06:07:54;;;;;;;;;;;21.40;99.90;;;;;;2092336;28;1271;-62
2021/06/28 06:09:13;;;;;;;;;;;21.40;99.90;;;;;;2094272;28;1409;-62
2021/06/28 06:10:32;;;;;;;;;;;21.40;99.90;;;;;;2097209;28;1454;-62
2021/06/28 06:11:51;;;;;;;;;;;21.40;99.90;;;;;;2098302;28;1178;-62
2021/06/28 06:13:11;;;;;;;;;;;21.40;99.90;;;;;;2091528;28;1962;-62
2021/06/28 06:14:30;;;;;;;;;;;21.40;99.90;;;;;;2096572;28;1336;-62
2021/06/28 06:15:49;;;;;;;;;;;21.40;99.90;;;;;;2086243;28;1288;-62
2021/06/28 06:17:09;;;;;;;;;;;21.40;99.90;;;;;;2092274;28;1158;-62
2021/06/28 06:18:28;;;;;;;;;;;21.40;99.90;;;;;;2090565;28;1215;-62
2021/06/28 06:19:48;;;;;;;;;;;21.40;99.90;;;;;;2085692;28;1521;-60
2021/06/28 06:21:08;;;;;;;;;;;21.40;99.90;;;;;;2092286;28;1354;-62
2021/06/28 06:22:27;;;;;;;;;;;21.40;99.90;;;;;;2103626;28;1910;-62
2021/06/28 06:23:46;;;;;;;;;;;21.50;99.90;;;;;;2098544;28;912;-62
2021/06/28 06:25:05;;;;;;;;;;;21.50;99.90;;;;;;2102489;28;728;-62
2021/06/28 06:26:24;;;;;;;;;;;21.50;99.90;;;;;;2102561;28;772;-62
2021/06/28 06:27:43;;;;;;;;;;;21.50;99.90;;;;;;2094474;28;743;-62
2021/06/28 06:29:03;;;;;;;;;;;21.50;99.90;;;;;;2101278;28;752;-62
2021/06/28 06:30:22;;;;;;;;;;;21.50;99.90;;;;;;2091433;28;1176;-62
2021/06/28 06:31:41;;;;;;;;;;;21.50;99.90;;;;;;2090480;28;1297;-62
2021/06/28 06:33:01;;;;;;;;;;;21.50;99.90;;;;;;2095973;28;1453;-62
2021/06/28 06:34:20;;;;;;;;;;;21.50;99.90;;;;;;2088333;28;1369;-62
2021/06/28 06:35:39;;;;;;;;;;;21.50;99.90;;;;;;2090880;28;1056;-62
2021/06/28 06:36:58;;;;;;;;;;;21.50;99.90;;;;;;2097144;28;1377;-62
2021/06/28 06:38:17;;;;;;;;;;;21.50;99.90;;;;;;2096889;28;1407;-62
2021/06/28 06:39:37;;;;;;;;;;;21.50;99.90;;;;;;2097493;28;1436;-60
2021/06/28 06:40:56;;;;;;;;;;;21.50;99.90;;;;;;2096005;28;1286;-60
2021/06/28 06:42:15;;;;;;;;;;;21.50;99.90;;;;;;2097937;28;1166;-61
2021/06/28 06:43:34;;;;;;;;;;;21.50;99.90;;;;;;2094629;28;1500;-60
2021/06/28 06:44:53;;;;;;;;;;;21.50;99.90;;;;;;2097015;28;1223;-61
2021/06/28 06:46:13;;;;;;;;;;;21.50;99.90;;;;;;2096213;28;1187;-60
2021/06/28 06:47:32;;;;;;;;;;;21.50;99.90;;;;;;2095027;28;1104;-61
2021/06/28 06:48:51;;;;;;;;;;;21.50;99.90;;;;;;2096739;28;843;-60
2021/06/28 06:50:12;;;;;;;;;;;21.50;99.90;;;;;;2095128;28;1273;-61
2021/06/28 06:51:31;;;;;;;;;;;21.50;99.90;;;;;;2096314;28;1199;-61
2021/06/28 06:52:50;;;;;;;;;;;21.50;99.90;;;;;;2096425;28;1440;-61
2021/06/28 06:54:10;;;;;;;;;;;21.60;99.90;;;;;;2093937;28;1271;-61
2021/06/28 06:55:29;;;;;;;;;;;21.50;99.90;;;;;;2097382;28;1190;-61
2021/06/28 06:56:48;;;;;;;;;;;21.50;99.90;;;;;;2095801;28;1190;-61
2021/06/28 06:58:08;;;;;;;;;;;21.50;99.90;;;;;;2097210;28;1516;-61
2021/06/28 06:59:28;;;;;;;;;;;21.50;99.90;;;;;;2096118;28;1221;-61
2021/06/28 07:00:47;;;;;;;;;;;21.50;99.90;;;;;;2097554;28;1306;-60
2021/06/28 07:02:07;;;;;;;;;;;21.50;99.90;;;;;;2094068;28;1247;-60
2021/06/28 07:03:26;;;;;;;;;;;21.50;99.90;;;;;;2097234;28;1454;-60
2021/06/28 07:04:45;;;;;;;;;;;21.50;99.90;;;;;;2093505;28;1221;-60
2021/06/28 07:06:04;;;;;;;;;;;21.50;99.90;;;;;;2093325;28;1181;-61
2021/06/28 07:07:24;;;;;;;;;;;21.50;99.90;;;;;;2096298;28;1062;-61
2021/06/28 07:08:43;;;;;;;;;;;21.50;99.90;;;;;;2095215;28;1202;-61
2021/06/28 07:10:05;;;;;;;;;;;21.50;99.90;;;;;;2087909;28;1267;-61
2021/06/28 07:11:25;;;;;;;;;;;21.60;99.90;;;;;;2094591;28;1350;-61
2021/06/28 07:12:44;;;;;;;;;;;21.60;99.90;;;;;;2094926;28;904;-61
2021/06/28 07:14:04;;;;;;;;;;;21.60;99.90;;;;;;2094861;28;1241;-61
2021/06/28 07:15:23;;;;;;;;;;;21.50;99.90;;;;;;2092820;28;961;-61
2021/06/28 07:16:43;;;;;;;;;;;21.60;99.90;;;;;;2094562;28;1421;-61
2021/06/28 07:18:03;;;;;;;;;;;21.60;99.90;;;;;;2096992;28;1723;-61
2021/06/28 07:19:22;;;;;;;;;;;21.60;99.90;;;;;;2095018;28;1339;-61
2021/06/28 07:20:42;;;;;;;;;;;21.60;99.90;;;;;;2089993;28;1232;-61
2021/06/28 07:22:01;;;;;;;;;;;21.60;99.90;;;;;;2092768;28;1074;-61
2021/06/28 07:23:20;;;;;;;;;;;21.60;99.90;;;;;;2096501;28;1918;-61
2021/06/28 07:24:39;;;;;;;;;;;21.60;99.90;;;;;;2087771;28;1461;-61
2021/06/28 07:25:59;;;;;;;;;;;21.60;99.90;;;;;;2090404;28;931;-61
2021/06/28 07:27:18;;;;;;;;;;;21.60;99.90;;;;;;2093246;28;1393;-61
2021/06/28 07:28:37;;;;;;;;;;;21.60;99.90;;;;;;2096454;28;1007;-61
2021/06/28 07:29:57;;;;;;;;;;;21.60;99.90;;;;;;2091703;28;1660;-61
2021/06/28 07:31:16;;;;;;;;;;;21.60;99.90;;;;;;2094471;28;1676;-61
2021/06/28 07:32:36;;;;;;;;;;;21.50;99.90;;;;;;2094860;28;1536;-61
2021/06/28 07:33:55;;;;;;;;;;;21.60;99.90;;;;;;2087686;28;1634;-60
2021/06/28 07:35:14;;;;;;;;;;;21.50;99.90;;;;;;2090222;28;1759;-61
2021/06/28 07:36:34;;;;;;;;;;;21.60;99.90;;;;;;2097004;28;1383;-61
2021/06/28 07:37:53;;;;;;;;;;;21.60;99.90;;;;;;2094812;28;1618;-61
2021/06/28 07:39:12;;;;;;;;;;;21.60;99.90;;;;;;2097728;28;1394;-61
2021/06/28 07:40:31;;;;;;;;;;;21.60;99.90;;;;;;2094301;28;1095;-61
2021/06/28 07:41:50;;;;;;;;;;;21.60;99.90;;;;;;2094319;28;1203;-61
2021/06/28 07:43:10;;;;;;;;;;;21.60;99.90;;;;;;2093753;28;1906;-61
2021/06/28 07:44:29;;;;;;;;;;;21.60;99.90;;;;;;2096592;28;1671;-61
2021/06/28 07:45:48;;;;;;;;;;;21.60;99.90;;;;;;2097342;28;1370;-61
2021/06/28 07:47:07;;;;;;;;;;;21.60;99.90;;;;;;2088697;28;1409;-61
2021/06/28 07:48:26;;;;;;;;;;;21.60;99.90;;;;;;2092525;28;1076;-61
2021/06/28 07:49:45;;;;;;;;;;;21.60;99.90;;;;;;2094019;28;1634;-61
2021/06/28 07:51:05;;;;;;;;;;;21.60;99.90;;;;;;2098623;28;1413;-61